Wattay International Airport
VLVT : now visible

Airfield :











YOU CAN JOIN US ON...

 
LOGIN :

Register | Disclaimer

   EN    FR    IT 

 









Legend :    VFR   Marginal VFR   IFR   Intensive IFR   Very Intensive IFR
Visi :
Ceiling :
>= 8 km
>= 3000ft
5 to 8 km
1000 to 3000 ft
1500m to 5 km
500 to 1000 ft
800 to 1500m
200 to 500 ft
< 800m
< 200 ft
Symbols :   Thunderstorms  Fog  Heavy snow  Heavy precipitations  Wind > 20 kt






- Airport Elevation : 564 ft
- IATA code : VTE


VLVT - Wattay International

CURRENT METAR :
  • 130930Z 18004KT 8000 SCT016 BKN050 32/27 Q1001 NOSIG

EXPIRED METARs :
  • 130900Z 22004KT 9999 SCT016 BKN050 33/27 Q1001 NOSIG
  • 130830Z 24002KT 8000 SCT016 BKN050 32/27 Q1001 NOSIG
  • 130800Z 27002KT 8000 SCT016 BKN050 32/26 Q1001 NOSIG
  • 130730Z 27004KT 8000 SCT016 BKN050 32/26 Q1002 NOSIG
  • 130700Z 24004KT 8000 SCT016 BKN050 32/26 Q1002 NOSIG
  • 130630Z 27004KT 8000 SCT016 BKN040 31/26 Q1002 NOSIG
  • 130600Z 18002KT 8000 SCT016 BKN050 32/26 Q1003 NOSIG

TAF TAF VLVT
Valid from the 13 at 06:00 until the 14 at 06:00 UTC


130500Z 1306/1406 22004KT 8000 SCT016 BKN050
VLVT FIR / Asia



MET'MAP, your aeronautical weather chart ! - Copyright ORBIFLY December 2007 - Disclaimer

ORBIFLY MET'MAP TEAM :

Programming & Development : Alexandra Zaïnal
Original concept : Baudouin d'Aumeries
Technical & hardware support : Manuel Goepfert
Assistance : Marc-Olivier Méhu




SOURCES & CREDITS :

   NOAA       Earth
Advisory